To NAV CANADA Home Page Login to a new session Search on AWWS site Feedback and Comments Disclaimer Vers la page française équivalente Tips FAQ What's new on the site To the Forecasts and Observations / NOTAM section To "File a Flight Plan" website Publications and other links Update of the User's profile FIC Telephone Numbers My Weather Data Folder Route Weather Data Regional Weather Data Local Weather Data To the Forecasts and Observations / NOTAM section
Request Generated 06/26/2017 at 22:22:27 UTC . Weather information available at that time is displayed.

METAR/TAF

CARTWRIGHT/NL    

METAR CWCA 262200Z 11013G19KT 15SM FEW020 16/04 A2957 RMK CU1 SLP015
DENSITY ALT 600FT=
METAR CWCA 262100Z 09012G19KT 15SM FEW020 17/03 A2957 RMK CU1 SLP014
DENSITY ALT 700FT=
METAR CWCA 262000Z 08011G18KT 15SM FEW020 17/03 A2956 RMK CU1 SLP012
DENSITY ALT 700FT=

TAF CYCA 261939Z 2620/2708 ADVISORY OFFSITE 08015KT P6SM FEW030
BECMG 2620/2622 25010G20KT
BECMG 2622/2624 26008KT
RMK NXT FCST BY 270200Z=
Your time UTC time
Weather data provided by Environment Canada and NAV CANADA